Time;durP1;ratioP1;P1;durP2;ratioP2;P2;SDS_P1;SDS_P2;PMS_P1;PMS_P2;Temp;Humidity;BMP_temperature;BMP_pressure;BME280_temperature;BME280_humidity;BME280_pressure;Samples;Min_cycle;Max_cycle;Signal;HPM_P1;HPM_P2
2021/05/20 00:00:39;;;;;;;1.05;0.30;;;13.30;99.90;;;;;;5031021;28;20103;-61
2021/05/20 00:03:06;;;;;;;1.20;0.40;;;13.30;99.90;;;;;;5054112;28;20044;-61
2021/05/20 00:05:33;;;;;;;0.75;0.40;;;13.30;99.90;;;;;;5055867;28;20057;-61
2021/05/20 00:08:00;;;;;;;1.83;0.32;;;13.30;99.90;;;;;;5048350;28;20052;-61
2021/05/20 00:10:27;;;;;;;1.42;0.50;;;13.20;99.90;;;;;;5031563;28;20496;-61
2021/05/20 00:12:54;;;;;;;2.28;0.50;;;13.20;99.90;;;;;;5048476;28;20049;-61
2021/05/20 00:15:21;;;;;;;1.85;0.50;;;13.20;99.90;;;;;;5028462;28;20048;-61
2021/05/20 00:17:48;;;;;;;0.75;0.32;;;13.20;99.90;;;;;;5031169;28;20048;-61
2021/05/20 00:20:16;;;;;;;2.15;0.60;;;13.20;99.90;;;;;;5051228;28;20037;-61
2021/05/20 00:22:43;;;;;;;3.15;0.60;;;13.20;99.90;;;;;;5032033;28;20083;-61
2021/05/20 00:25:10;;;;;;;1.92;0.75;;;13.20;99.90;;;;;;5030435;28;20056;-61
2021/05/20 00:27:37;;;;;;;2.40;0.93;;;13.20;99.90;;;;;;5049620;28;20757;-61
2021/05/20 00:30:07;;;;;;;1.85;0.52;;;13.20;99.90;;;;;;5026257;28;20053;-61
2021/05/20 00:32:34;;;;;;;2.67;0.80;;;13.20;99.90;;;;;;5050705;28;20103;-61
2021/05/20 00:35:01;;;;;;;1.50;0.68;;;13.10;99.90;;;;;;5013652;28;20049;-61
2021/05/20 00:37:28;;;;;;;2.15;0.63;;;13.10;99.90;;;;;;5049680;28;20384;-61
2021/05/20 00:39:55;;;;;;;1.27;0.63;;;13.10;99.90;;;;;;5049049;28;20049;-61
2021/05/20 00:42:22;;;;;;;4.15;1.55;;;13.10;99.90;;;;;;5030010;28;20044;-61
2021/05/20 00:44:57;;;;;;;3.03;1.20;;;13.10;99.90;;;;;;5018441;28;20083;-61
2021/05/20 00:47:29;;;;;;;2.38;1.02;;;13.10;99.90;;;;;;5024635;28;20427;-60
2021/05/20 00:49:57;;;;;;;2.25;0.90;;;13.00;99.90;;;;;;5031790;28;20045;-61
2021/05/20 00:52:25;;;;;;;2.60;0.75;;;13.00;99.90;;;;;;5010275;28;20053;-61
2021/05/20 00:54:55;;;;;;;1.90;0.77;;;13.10;99.90;;;;;;5050338;28;20119;-61
2021/05/20 00:57:23;;;;;;;2.67;1.05;;;13.10;99.90;;;;;;5030618;28;20500;-61
2021/05/20 00:59:51;;;;;;;2.35;0.88;;;13.10;99.90;;;;;;5029673;28;20049;-61
2021/05/20 01:02:19;;;;;;;1.83;0.88;;;13.10;99.90;;;;;;5049859;28;20045;-61
2021/05/20 01:04:47;;;;;;;4.00;1.15;;;13.00;99.90;;;;;;5033796;28;20539;-61
2021/05/20 01:07:15;;;;;;;4.35;1.30;;;13.00;99.90;;;;;;5026499;28;20058;-61
2021/05/20 01:09:45;;;;;;;2.58;0.90;;;13.00;99.90;;;;;;5050070;28;20064;-61
2021/05/20 01:12:12;;;;;;;2.55;1.30;;;13.10;99.90;;;;;;5049077;28;20057;-61
2021/05/20 01:14:43;;;;;;;2.08;1.00;;;13.10;99.90;;;;;;5048887;28;20049;-61
2021/05/20 01:17:13;;;;;;;4.57;1.30;;;13.10;99.90;;;;;;5049781;28;20056;-61
2021/05/20 01:19:46;;;;;;;2.80;1.00;;;13.10;99.90;;;;;;5053216;28;20496;-61
2021/05/20 01:22:14;;;;;;;1.55;1.10;;;13.00;99.90;;;;;;5023623;28;20045;-61
2021/05/20 01:24:42;;;;;;;2.65;1.30;;;13.00;99.90;;;;;;5052972;28;20076;-60
2021/05/20 01:27:11;;;;;;;2.40;1.20;;;13.00;99.90;;;;;;5052735;28;20049;-60
2021/05/20 01:29:41;;;;;;;3.47;1.33;;;13.00;99.90;;;;;;5036992;28;20064;-60
2021/05/20 01:32:09;;;;;;;2.42;1.05;;;13.00;99.90;;;;;;5053762;28;20504;-60
2021/05/20 01:34:36;;;;;;;2.17;1.08;;;12.90;99.90;;;;;;5052884;28;20053;-60
2021/05/20 01:37:06;;;;;;;2.83;1.40;;;12.90;99.90;;;;;;5054010;28;20041;-60
2021/05/20 01:39:34;;;;;;;2.80;1.60;;;13.00;99.90;;;;;;5035609;28;20429;-60
2021/05/20 01:42:02;;;;;;;2.78;1.42;;;13.00;99.90;;;;;;5050968;28;20064;-60
2021/05/20 01:44:29;;;;;;;3.40;1.60;;;13.00;99.90;;;;;;5051143;28;20107;-60
2021/05/20 01:46:56;;;;;;;2.58;1.52;;;13.00;99.90;;;;;;5047758;28;20057;-60
2021/05/20 01:49:23;;;;;;;3.75;1.85;;;12.90;99.90;;;;;;5051537;28;20493;-60
2021/05/20 01:51:50;;;;;;;4.25;1.88;;;12.90;99.90;;;;;;5051224;28;20060;-60
2021/05/20 01:54:17;;;;;;;5.95;2.10;;;12.90;99.90;;;;;;5038716;28;20440;-60
2021/05/20 01:56:44;;;;;;;5.28;2.10;;;12.90;99.90;;;;;;5037433;28;20110;-60
2021/05/20 01:59:11;;;;;;;3.88;1.75;;;12.90;99.90;;;;;;5040922;28;20049;-60
2021/05/20 02:01:40;;;;;;;4.18;1.95;;;12.90;99.90;;;;;;5034392;28;20053;-60
2021/05/20 02:04:07;;;;;;;4.03;1.85;;;12.80;99.90;;;;;;5051165;28;20048;-61
2021/05/20 02:06:35;;;;;;;5.10;2.15;;;12.80;99.90;;;;;;5033017;28;20109;-61
2021/05/20 02:09:04;;;;;;;2.97;1.90;;;12.80;99.90;;;;;;5032634;28;20068;-61
2021/05/20 02:11:31;;;;;;;4.20;1.48;;;12.80;99.90;;;;;;5052229;28;20106;-61
2021/05/20 02:13:58;;;;;;;2.45;1.45;;;12.70;99.90;;;;;;5052547;28;20041;-61
2021/05/20 02:16:25;;;;;;;3.35;1.80;;;12.70;99.90;;;;;;5030475;28;20045;-61
2021/05/20 02:18:52;;;;;;;3.50;1.88;;;12.70;99.90;;;;;;5033323;28;20045;-61
2021/05/20 02:21:19;;;;;;;5.55;2.03;;;12.70;99.90;;;;;;5052631;28;20040;-61
2021/05/20 02:23:46;;;;;;;4.70;1.98;;;12.70;99.90;;;;;;5013707;28;20107;-61
2021/05/20 02:26:14;;;;;;;4.53;2.00;;;12.70;99.90;;;;;;5035931;28;20040;-61
2021/05/20 02:28:41;;;;;;;3.28;1.60;;;12.70;99.90;;;;;;5050419;28;20124;-61
2021/05/20 02:31:08;;;;;;;3.08;1.90;;;12.80;99.90;;;;;;5051084;28;20052;-61
2021/05/20 02:33:35;;;;;;;5.45;2.45;;;12.80;99.90;;;;;;5053029;28;20061;-61
2021/05/20 02:36:03;;;;;;;6.35;2.42;;;12.90;99.90;;;;;;5053092;28;20380;-60
2021/05/20 02:38:30;;;;;;;6.43;3.00;;;12.80;99.90;;;;;;5045151;28;20049;-60
2021/05/20 02:40:57;;;;;;;6.95;2.72;;;12.90;99.90;;;;;;5015739;28;20064;-60
2021/05/20 02:43:25;;;;;;;6.15;2.78;;;12.90;99.90;;;;;;5052895;28;20492;-60
2021/05/20 02:45:53;;;;;;;3.80;2.25;;;12.90;99.90;;;;;;5052282;28;20075;-60
2021/05/20 02:48:20;;;;;;;4.25;1.83;;;12.90;99.90;;;;;;5035537;28;20085;-61
2021/05/20 02:50:47;;;;;;;4.20;1.98;;;12.90;99.90;;;;;;5051694;28;20068;-60
2021/05/20 02:53:14;;;;;;;3.25;1.63;;;13.00;99.90;;;;;;5049370;28;20061;-61
2021/05/20 02:55:41;;;;;;;3.88;2.03;;;13.00;99.90;;;;;;5036088;28;20041;-61
2021/05/20 02:58:08;;;;;;;2.20;1.13;;;12.90;99.90;;;;;;5051841;28;20063;-60
2021/05/20 03:00:37;;;;;;;2.30;1.33;;;12.90;99.90;;;;;;5033942;28;20041;-60
2021/05/20 03:03:05;;;;;;;3.03;1.38;;;12.90;99.90;;;;;;5052805;28;20056;-60
2021/05/20 03:05:32;;;;;;;2.67;1.35;;;12.90;99.90;;;;;;5032410;28;20057;-60
2021/05/20 03:07:59;;;;;;;3.03;1.15;;;12.80;99.90;;;;;;5050804;28;20057;-60
2021/05/20 03:10:27;;;;;;;4.32;1.45;;;12.80;99.90;;;;;;5034139;28;20114;-61
2021/05/20 03:12:58;;;;;;;3.65;1.45;;;12.80;99.90;;;;;;5044803;28;20063;-61
2021/05/20 03:15:25;;;;;;;3.97;1.45;;;12.80;99.90;;;;;;5051724;28;20052;-61
2021/05/20 03:17:52;;;;;;;2.97;1.40;;;12.80;99.90;;;;;;5052410;28;20053;-61
2021/05/20 03:20:19;;;;;;;4.30;1.60;;;12.70;99.90;;;;;;5051771;28;20045;-61
2021/05/20 03:22:47;;;;;;;3.67;1.80;;;12.70;99.90;;;;;;5051756;28;20068;-60
2021/05/20 03:25:16;;;;;;;4.10;1.70;;;12.80;99.90;;;;;;5036840;28;20408;-60
2021/05/20 03:27:43;;;;;;;3.42;1.98;;;12.70;99.90;;;;;;5051911;28;20057;-60
2021/05/20 03:30:11;;;;;;;2.78;1.40;;;12.70;99.90;;;;;;5049365;28;20106;-60
2021/05/20 03:32:38;;;;;;;3.28;1.70;;;12.70;99.90;;;;;;5049043;28;20060;-60
2021/05/20 03:35:09;;;;;;;3.53;1.75;;;12.70;99.90;;;;;;5051105;28;20049;-60
2021/05/20 03:37:37;;;;;;;2.97;1.60;;;12.70;99.90;;;;;;5050841;28;20417;-60
2021/05/20 03:40:06;;;;;;;3.05;1.70;;;12.70;99.90;;;;;;5046059;28;20043;-61
2021/05/20 03:42:33;;;;;;;3.67;1.52;;;12.70;99.90;;;;;;5026673;28;20397;-60
2021/05/20 03:45:05;;;;;;;3.97;1.55;;;12.70;99.90;;;;;;5045002;28;20044;-60
2021/05/20 03:47:32;;;;;;;5.28;1.65;;;12.60;99.90;;;;;;5052041;28;20056;-60
2021/05/20 03:49:59;;;;;;;5.10;1.77;;;12.70;99.90;;;;;;5051114;28;20055;-60
2021/05/20 03:52:26;;;;;;;3.22;1.77;;;12.70;99.90;;;;;;5029730;28;20045;-60
2021/05/20 03:54:54;;;;;;;4.40;1.90;;;12.80;99.90;;;;;;5052262;28;20053;-60
2021/05/20 03:57:21;;;;;;;3.75;1.95;;;12.70;99.90;;;;;;5048127;28;20049;-60
2021/05/20 03:59:49;;;;;;;3.50;1.65;;;12.70;99.90;;;;;;5049612;28;20081;-61
2021/05/20 04:02:16;;;;;;;2.15;1.42;;;12.70;99.90;;;;;;5032320;28;20098;-61
2021/05/20 04:04:44;;;;;;;3.63;1.80;;;12.70;99.90;;;;;;5032756;28;20079;-61
2021/05/20 04:07:11;;;;;;;4.28;2.20;;;12.80;99.90;;;;;;5051548;28;20049;-61
2021/05/20 04:09:38;;;;;;;3.78;1.95;;;12.70;99.90;;;;;;5048915;28;20038;-61
2021/05/20 04:12:05;;;;;;;3.33;1.85;;;12.70;99.90;;;;;;5047523;28;20045;-61
2021/05/20 04:14:32;;;;;;;4.05;2.55;;;12.70;99.90;;;;;;5048874;28;20045;-61
2021/05/20 04:16:59;;;;;;;2.38;1.67;;;12.80;99.90;;;;;;5048389;28;20049;-61
2021/05/20 04:19:26;;;;;;;3.97;1.98;;;12.70;99.90;;;;;;5050327;28;20102;-61
2021/05/20 04:21:53;;;;;;;4.15;2.08;;;12.80;99.90;;;;;;5048776;28;20059;-61
2021/05/20 04:24:21;;;;;;;4.20;2.25;;;12.70;99.90;;;;;;5049874;28;20041;-61
2021/05/20 04:26:48;;;;;;;3.70;2.05;;;12.70;99.90;;;;;;5049945;28;20049;-61
2021/05/20 04:29:15;;;;;;;3.90;1.75;;;12.70;99.90;;;;;;5030944;28;20097;-60
2021/05/20 04:31:42;;;;;;;7.15;2.40;;;12.70;99.90;;;;;;5050966;28;20071;-60
2021/05/20 04:34:09;;;;;;;7.20;2.25;;;12.80;99.90;;;;;;5033152;28;20053;-61
2021/05/20 04:36:36;;;;;;;2.42;1.73;;;12.70;99.90;;;;;;5049267;28;20550;-60
2021/05/20 04:39:04;;;;;;;6.18;2.42;;;12.70;99.90;;;;;;5049157;28;20049;-60
2021/05/20 04:41:32;;;;;;;4.00;2.42;;;12.60;99.90;;;;;;5028743;28;20499;-60
2021/05/20 04:43:59;;;;;;;3.78;2.25;;;12.60;99.90;;;;;;5051018;28;20060;-60
2021/05/20 04:46:26;;;;;;;3.72;2.10;;;12.60;99.90;;;;;;5047954;28;20080;-60
2021/05/20 04:48:53;;;;;;;4.30;2.05;;;12.60;99.90;;;;;;5045264;28;20048;-60
2021/05/20 04:51:20;;;;;;;2.85;1.85;;;12.60;99.90;;;;;;5050909;28;20111;-60
2021/05/20 04:53:49;;;;;;;3.67;2.30;;;12.70;99.90;;;;;;5036461;28;20064;-60
2021/05/20 04:56:23;;;;;;;7.00;2.38;;;12.60;99.90;;;;;;5034780;28;20041;-60
2021/05/20 04:58:50;;;;;;;4.78;2.35;;;12.60;99.90;;;;;;5054204;28;20057;-61
2021/05/20 05:01:17;;;;;;;5.35;2.38;;;12.60;99.90;;;;;;5054326;28;20045;-61
2021/05/20 05:03:44;;;;;;;3.17;2.33;;;12.70;99.90;;;;;;5051143;28;20529;-61
2021/05/20 05:06:11;;;;;;;5.05;2.38;;;12.70;99.90;;;;;;5034942;28;20362;-60
2021/05/20 05:08:38;;;;;;;5.68;2.60;;;12.60;99.90;;;;;;5054675;28;20049;-61
2021/05/20 05:11:05;;;;;;;3.92;2.22;;;12.60;99.90;;;;;;5035204;28;20052;-61
2021/05/20 05:13:32;;;;;;;5.88;2.88;;;12.60;99.90;;;;;;5030496;28;20053;-60
2021/05/20 05:15:59;;;;;;;7.43;3.20;;;12.70;99.90;;;;;;5050785;28;20092;-60
2021/05/20 05:18:26;;;;;;;7.38;2.83;;;12.70;99.90;;;;;;5053297;28;20513;-60
2021/05/20 05:20:53;;;;;;;5.18;2.10;;;12.70;99.90;;;;;;5052363;28;20044;-60
2021/05/20 05:23:20;;;;;;;3.95;2.35;;;12.70;99.90;;;;;;5052033;28;20049;-61
2021/05/20 05:25:49;;;;;;;4.90;2.88;;;12.70;99.90;;;;;;5052833;28;20488;-61
2021/05/20 05:28:16;;;;;;;4.13;2.80;;;12.70;99.90;;;;;;5050557;28;20053;-61
2021/05/20 05:30:45;;;;;;;5.72;3.42;;;12.70;99.90;;;;;;5033591;28;20056;-60
2021/05/20 05:33:12;;;;;;;5.35;2.95;;;12.70;99.90;;;;;;5051959;28;20053;-61
2021/05/20 05:35:39;;;;;;;6.72;3.85;;;12.70;99.90;;;;;;5052711;28;20420;-60
2021/05/20 05:38:06;;;;;;;5.10;3.00;;;12.80;99.90;;;;;;5029847;28;20048;-60
2021/05/20 05:40:33;;;;;;;6.03;3.60;;;12.80;99.90;;;;;;5050924;28;20494;-60
2021/05/20 05:43:00;;;;;;;8.60;4.75;;;12.80;99.90;;;;;;5051238;28;20072;-61
2021/05/20 05:45:27;;;;;;;7.03;3.75;;;12.80;99.90;;;;;;5035298;28;20045;-61
2021/05/20 05:47:54;;;;;;;6.38;3.20;;;12.80;99.90;;;;;;5053490;28;20052;-61
2021/05/20 05:50:21;;;;;;;6.40;4.00;;;12.80;99.90;;;;;;5055874;28;20053;-60
2021/05/20 05:52:48;;;;;;;8.50;4.97;;;12.80;99.90;;;;;;5055346;28;20102;-60
2021/05/20 05:55:15;;;;;;;10.15;5.95;;;12.80;99.90;;;;;;5056166;28;20049;-60
2021/05/20 05:57:42;;;;;;;18.10;10.02;;;12.80;99.90;;;;;;5048021;28;20099;-61
2021/05/20 06:00:10;;;;;;;8.70;5.32;;;12.80;99.90;;;;;;5049716;28;20049;-61
2021/05/20 06:02:45;;;;;;;7.05;4.25;;;12.80;99.90;;;;;;5029189;28;20500;-61
2021/05/20 06:05:13;;;;;;;9.98;7.07;;;12.90;99.90;;;;;;5027532;28;20037;-61
2021/05/20 06:07:47;;;;;;;11.75;6.55;;;12.80;99.90;;;;;;5033456;28;20048;-61
2021/05/20 06:10:14;;;;;;;8.32;5.35;;;12.90;99.90;;;;;;5047145;28;20056;-61
2021/05/20 06:12:41;;;;;;;14.35;6.07;;;12.90;99.90;;;;;;5049222;28;20044;-61
2021/05/20 06:15:09;;;;;;;10.10;5.10;;;12.90;99.90;;;;;;5049796;28;20499;-61
2021/05/20 06:17:37;;;;;;;9.18;5.32;;;12.90;99.90;;;;;;5019178;28;20661;-61
2021/05/20 06:20:06;;;;;;;8.10;4.85;;;13.00;99.90;;;;;;5032483;28;20045;-61
2021/05/20 06:22:33;;;;;;;8.50;4.75;;;13.00;99.90;;;;;;5027535;28;20052;-61
2021/05/20 06:25:01;;;;;;;8.25;5.32;;;12.90;99.90;;;;;;5017892;28;20080;-61
2021/05/20 06:27:28;;;;;;;9.10;5.05;;;13.00;99.90;;;;;;5049145;28;20056;-62
2021/05/20 06:29:57;;;;;;;10.70;5.85;;;13.00;99.90;;;;;;5030308;28;20385;-63
2021/05/20 06:32:24;;;;;;;8.57;5.28;;;12.90;99.90;;;;;;5047684;28;20756;-63
2021/05/20 06:34:51;;;;;;;10.20;5.95;;;12.90;99.90;;;;;;5049748;28;20136;-62
2021/05/20 06:37:18;;;;;;;8.63;4.80;;;12.90;99.90;;;;;;5016910;28;20111;-62
2021/05/20 06:39:46;;;;;;;9.25;5.07;;;12.90;99.90;;;;;;5051573;28;20373;-62
2021/05/20 06:42:15;;;;;;;10.38;5.80;;;12.90;99.90;;;;;;5049315;28;20475;-62
2021/05/20 06:44:42;;;;;;;8.98;5.65;;;13.00;99.90;;;;;;5038974;28;20083;-62
2021/05/20 06:47:09;;;;;;;10.13;5.97;;;13.00;99.90;;;;;;5031596;28;20547;-62
2021/05/20 06:49:36;;;;;;;9.75;5.75;;;13.00;99.90;;;;;;5050318;28;20049;-62
2021/05/20 06:52:04;;;;;;;7.85;5.20;;;13.00;99.90;;;;;;5044273;28;20049;-63
2021/05/20 06:54:31;;;;;;;9.73;6.70;;;13.00;99.90;;;;;;5045104;28;20057;-63
2021/05/20 06:57:02;;;;;;;10.57;5.68;;;13.00;99.90;;;;;;5021578;28;20052;-62
2021/05/20 07:02:15;;;;;;;9.95;5.70;;;13.10;99.90;;;;;;5045217;28;20048;-63
2021/05/20 07:04:42;;;;;;;12.55;7.03;;;13.10;99.90;;;;;;5046582;28;20057;-63
2021/05/20 07:07:10;;;;;;;11.32;6.53;;;13.10;99.90;;;;;;5046669;28;20056;-63
2021/05/20 07:09:39;;;;;;;11.50;6.25;;;13.10;99.90;;;;;;5045914;28;20068;-63
2021/05/20 07:12:07;;;;;;;12.20;6.63;;;13.10;99.90;;;;;;5028226;28;20057;-63
2021/05/20 07:14:34;;;;;;;12.43;7.80;;;13.10;99.90;;;;;;5040918;28;20048;-63
2021/05/20 07:17:02;;;;;;;13.25;6.97;;;13.20;99.90;;;;;;5025301;28;20431;-63
2021/05/20 07:19:29;;;;;;;12.27;6.07;;;13.20;99.90;;;;;;5027680;28;20047;-63
2021/05/20 07:21:56;;;;;;;9.30;6.20;;;13.20;99.90;;;;;;5046977;28;20052;-63
2021/05/20 07:24:23;;;;;;;11.30;6.13;;;13.20;99.90;;;;;;5044554;28;20060;-62
2021/05/20 07:26:52;;;;;;;11.77;6.45;;;13.30;99.90;;;;;;5043849;28;20067;-63
2021/05/20 07:29:19;;;;;;;8.23;5.50;;;13.30;99.90;;;;;;5026282;28;20406;-63
2021/05/20 07:31:47;;;;;;;9.80;5.75;;;13.30;99.90;;;;;;5044796;28;20053;-63
2021/05/20 07:34:14;;;;;;;11.80;6.05;;;13.30;99.90;;;;;;5046757;28;20598;-62
2021/05/20 07:36:41;;;;;;;10.25;5.70;;;13.30;99.90;;;;;;5049537;28;20055;-63
2021/05/20 07:39:08;;;;;;;10.10;5.40;;;13.30;99.90;;;;;;5030464;28;20056;-62
2021/05/20 07:41:36;;;;;;;12.18;6.60;;;13.40;99.90;;;;;;5046010;28;20038;-63
2021/05/20 07:44:04;;;;;;;10.55;6.22;;;13.40;99.90;;;;;;5042170;28;20060;-61
2021/05/20 07:46:31;;;;;;;8.40;5.32;;;13.40;99.90;;;;;;5009185;28;20056;-63
2021/05/20 07:48:58;;;;;;;10.23;6.10;;;13.40;99.90;;;;;;5049200;28;20053;-63
2021/05/20 07:51:25;;;;;;;9.63;5.88;;;13.40;99.90;;;;;;5028303;28;20056;-63
2021/05/20 07:53:52;;;;;;;10.05;5.88;;;13.40;99.90;;;;;;5031075;28;20603;-63
2021/05/20 07:56:19;;;;;;;12.05;7.10;;;13.50;99.90;;;;;;5049683;28;20064;-63
2021/05/20 07:58:52;;;;;;;10.00;5.63;;;13.50;99.90;;;;;;5027321;28;20053;-63
2021/05/20 08:01:22;;;;;;;9.02;5.70;;;13.50;99.90;;;;;;5047705;28;20037;-62
2021/05/20 08:03:57;;;;;;;9.52;6.05;;;13.50;99.90;;;;;;5030763;28;20056;-62
2021/05/20 08:06:38;;;;;;;14.35;6.50;;;13.60;99.90;;;;;;5044739;28;20053;-69
2021/05/20 08:09:27;;;;;;;11.00;6.22;;;13.50;99.90;;;;;;5029982;28;20067;-70
2021/05/20 08:11:54;;;;;;;10.90;6.40;;;13.50;99.90;;;;;;5037479;28;20435;-63
2021/05/20 08:14:21;;;;;;;11.30;7.18;;;13.50;99.90;;;;;;5035995;28;20053;-69
2021/05/20 08:16:48;;;;;;;10.52;6.53;;;13.50;99.90;;;;;;5018969;28;20045;-69
2021/05/20 08:19:15;;;;;;;10.48;6.68;;;13.50;99.90;;;;;;5023219;28;20536;-63
2021/05/20 08:21:43;;;;;;;12.05;6.88;;;13.50;99.90;;;;;;5021534;28;20047;-63
2021/05/20 08:24:10;;;;;;;11.93;7.20;;;13.50;99.90;;;;;;5038375;28;20049;-63
2021/05/20 08:26:37;;;;;;;12.63;6.63;;;13.50;99.90;;;;;;5044039;28;20072;-63
2021/05/20 08:29:04;;;;;;;12.57;6.95;;;13.50;99.90;;;;;;5025332;28;20119;-63
2021/05/20 08:31:32;;;;;;;11.10;6.47;;;13.50;99.90;;;;;;5030058;28;20049;-62
2021/05/20 08:34:00;;;;;;;12.10;6.68;;;13.50;99.90;;;;;;5029859;28;20719;-62
2021/05/20 08:36:27;;;;;;;12.80;6.47;;;13.50;99.90;;;;;;5028561;28;20053;-66
2021/05/20 08:38:54;;;;;;;12.07;6.78;;;13.50;99.90;;;;;;5047068;28;20571;-63
2021/05/20 08:41:21;;;;;;;11.40;6.40;;;13.70;99.90;;;;;;5059939;28;20099;-63
2021/05/20 08:43:49;;;;;;;10.98;6.70;;;13.70;99.90;;;;;;5028757;28;20061;-63
2021/05/20 08:46:24;;;;;;;11.15;6.57;;;13.70;99.90;;;;;;5049550;28;20110;-63
2021/05/20 08:48:51;;;;;;;13.07;7.22;;;13.80;99.90;;;;;;5027545;28;20057;-62
2021/05/20 08:51:19;;;;;;;11.60;7.45;;;13.70;99.90;;;;;;5031715;28;20385;-62
2021/05/20 08:53:47;;;;;;;12.77;7.10;;;13.80;99.90;;;;;;5029631;28;20788;-63
2021/05/20 08:56:17;;;;;;;11.40;6.45;;;13.80;99.90;;;;;;5048840;28;20164;-63
2021/05/20 08:58:45;;;;;;;12.38;6.72;;;13.90;99.90;;;;;;5030411;28;20095;-63
2021/05/20 09:01:35;;;;;;;11.80;7.22;;;13.90;99.90;;;;;;5040691;28;20493;-63
2021/05/20 09:04:03;;;;;;;14.05;7.20;;;14.00;99.90;;;;;;5030242;28;20044;-63
2021/05/20 09:06:46;;;;;;;13.93;7.70;;;14.00;99.90;;;;;;5048883;28;20114;-63
2021/05/20 09:09:26;;;;;;;13.93;7.28;;;14.00;99.90;;;;;;5047746;28;20110;-63
2021/05/20 09:11:56;;;;;;;12.85;7.53;;;14.00;99.90;;;;;;5036479;28;20068;-63
2021/05/20 09:14:34;;;;;;;13.10;7.43;;;14.10;99.90;;;;;;5033343;28;20443;-63
2021/05/20 09:17:15;;;;;;;14.02;7.53;;;14.20;99.90;;;;;;5017362;28;20126;-63
2021/05/20 09:19:47;;;;;;;12.60;8.05;;;14.20;99.90;;;;;;5046742;28;20049;-63
2021/05/20 09:22:14;;;;;;;14.50;8.30;;;14.20;99.90;;;;;;5040550;28;20499;-68
2021/05/20 09:24:56;;;;;;;12.80;7.50;;;14.30;99.90;;;;;;5040935;28;20057;-68
2021/05/20 09:27:37;;;;;;;13.77;8.05;;;14.40;99.90;;;;;;5025501;28;20059;-63
2021/05/20 09:30:11;;;;;;;13.77;7.43;;;14.40;99.90;;;;;;5043237;28;20053;-63
2021/05/20 09:32:44;;;;;;;13.30;8.32;;;14.40;99.90;;;;;;5044571;28;20056;-63
2021/05/20 09:35:11;;;;;;;15.05;8.80;;;14.50;99.90;;;;;;5028186;28;20053;-63
2021/05/20 09:38:04;;;;;;;14.98;8.82;;;14.60;99.90;;;;;;5051238;28;20056;-63
2021/05/20 09:40:43;;;;;;;17.15;8.00;;;14.70;99.90;;;;;;5031236;28;20413;-70
2021/05/20 09:43:15;;;;;;;13.10;7.38;;;14.70;99.90;;;;;;5025591;28;20063;-70
2021/05/20 09:45:42;;;;;;;15.15;8.68;;;14.80;99.90;;;;;;5044668;28;20053;-66
2021/05/20 09:48:09;;;;;;;10.77;6.82;;;14.90;99.90;;;;;;5012216;28;20045;-70
2021/05/20 09:50:43;;;;;;;13.57;7.10;;;14.90;99.90;;;;;;5024275;28;20056;-63
2021/05/20 09:53:15;;;;;;;10.98;6.10;;;15.00;99.90;;;;;;5046331;28;20056;-63
2021/05/20 09:55:45;;;;;;;10.60;6.00;;;15.00;99.90;;;;;;5046755;28;20049;-63
2021/05/20 09:58:12;;;;;;;8.45;5.40;;;15.10;99.90;;;;;;5046511;28;20875;-65
2021/05/20 10:00:39;;;;;;;8.80;5.63;;;15.20;99.90;;;;;;5025016;28;20067;-64
2021/05/20 10:03:11;;;;;;;8.57;4.45;;;15.20;99.90;;;;;;5025180;28;20095;-63
2021/05/20 10:05:41;;;;;;;8.83;5.33;;;15.30;99.90;;;;;;5041911;28;20067;-63
2021/05/20 10:08:10;;;;;;;8.48;4.43;;;15.30;99.90;;;;;;5031593;28;20855;-63
2021/05/20 10:10:40;;;;;;;8.18;4.85;;;15.40;99.90;;;;;;5033368;28;20064;-64
2021/05/20 10:13:10;;;;;;;9.77;5.05;;;15.40;99.90;;;;;;5046302;28;20132;-63
2021/05/20 10:15:39;;;;;;;7.85;4.85;;;15.50;99.90;;;;;;5043808;28;20969;-63
2021/05/20 10:18:15;;;;;;;9.38;5.00;;;15.60;99.90;;;;;;5030207;28;20037;-63
2021/05/20 10:20:44;;;;;;;8.10;5.15;;;15.70;99.90;;;;;;5029835;28;20053;-64
2021/05/20 10:23:17;;;;;;;12.15;5.13;;;15.80;99.90;;;;;;5048044;28;20045;-64
2021/05/20 10:25:45;;;;;;;11.65;6.60;;;15.80;99.90;;;;;;5048729;28;20049;-64
2021/05/20 10:28:14;;;;;;;10.98;5.97;;;15.90;99.90;;;;;;5049065;28;20057;-64
2021/05/20 10:30:47;;;;;;;6.85;4.53;;;15.90;99.90;;;;;;5047193;28;20506;-63
2021/05/20 10:33:16;;;;;;;9.43;5.18;;;15.90;99.90;;;;;;5021878;28;21817;-63
2021/05/20 10:35:51;;;;;;;9.45;4.47;;;16.00;98.50;;;;;;5051304;28;20055;-63
2021/05/20 10:38:29;;;;;;;7.03;4.93;;;16.00;98.90;;;;;;5054424;28;20033;-64
2021/05/20 10:41:12;;;;;;;7.03;4.53;;;16.00;98.60;;;;;;5031904;28;20064;-64
2021/05/20 10:43:41;;;;;;;8.02;4.18;;;16.10;97.20;;;;;;5043797;28;20503;-63
2021/05/20 10:46:13;;;;;;;7.25;4.32;;;16.10;96.40;;;;;;5027319;28;20052;-63
2021/05/20 10:48:54;;;;;;;7.43;4.45;;;16.20;96.30;;;;;;5046245;28;20487;-63
2021/05/20 10:51:24;;;;;;;6.68;3.22;;;16.20;95.60;;;;;;5024846;28;20427;-63
2021/05/20 10:53:52;;;;;;;7.22;4.07;;;16.30;95.40;;;;;;5046331;28;20103;-63
2021/05/20 10:56:39;;;;;;;8.13;4.10;;;16.30;96.00;;;;;;5046574;28;20385;-63
2021/05/20 10:59:40;;;;;;;6.45;3.78;;;16.40;96.80;;;;;;5038526;28;20064;-64
2021/05/20 11:02:13;;;;;;;5.22;3.67;;;16.40;95.10;;;;;;5045810;28;20071;-64
2021/05/20 11:04:42;;;;;;;8.48;3.90;;;16.40;93.60;;;;;;5031693;28;20052;-64
2021/05/20 11:07:10;;;;;;;4.85;3.17;;;16.40;94.00;;;;;;5049261;28;20060;-63
2021/05/20 11:09:48;;;;;;;6.78;3.63;;;16.50;92.30;;;;;;5029195;28;20041;-64
2021/05/20 11:12:19;;;;;;;6.53;3.65;;;16.50;93.00;;;;;;5042516;28;20061;-64
2021/05/20 11:14:47;;;;;;;6.88;2.97;;;16.40;93.10;;;;;;4996619;28;20060;-64
2021/05/20 11:17:47;;;;;;;4.88;2.83;;;16.40;93.00;;;;;;5023649;28;20107;-64
2021/05/20 11:20:24;;;;;;;7.20;3.13;;;16.50;92.60;;;;;;4976285;28;20054;-64
2021/05/20 11:23:17;;;;;;;10.63;3.25;;;16.40;93.00;;;;;;4964349;28;20128;-64
2021/05/20 11:25:45;;;;;;;3.65;2.08;;;16.50;92.20;;;;;;4968589;28;20050;-64
2021/05/20 11:28:17;;;;;;;4.32;2.55;;;16.50;89.40;;;;;;4968623;28;20112;-64
2021/05/20 11:30:44;;;;;;;4.90;2.53;;;16.50;90.80;;;;;;4972986;28;20066;-64
2021/05/20 11:33:18;;;;;;;5.03;3.10;;;16.50;92.00;;;;;;4968817;28;20864;-64
2021/05/20 11:38:28;;;;;;;4.90;2.90;;;16.60;90.70;;;;;;4983315;28;20117;-64
2021/05/20 11:41:10;;;;;;;4.53;2.83;;;16.60;90.60;;;;;;4966175;28;20061;-63
2021/05/20 11:43:38;;;;;;;4.53;2.42;;;16.70;90.50;;;;;;4981441;28;20066;-63
2021/05/20 11:46:20;;;;;;;5.47;2.45;;;16.70;89.30;;;;;;4979504;28;20054;-64
2021/05/20 11:49:31;;;;;;;4.25;2.50;;;16.80;90.70;;;;;;4967867;28;20054;-63
2021/05/20 11:52:08;;;;;;;5.05;2.60;;;17.00;89.60;;;;;;4981411;28;20687;-64
2021/05/20 11:54:40;;;;;;;6.68;2.88;;;17.00;87.10;;;;;;4961995;28;20153;-70
2021/05/20 11:57:13;;;;;;;4.18;2.35;;;17.10;86.80;;;;;;5025430;28;20045;-65
2021/05/20 11:59:43;;;;;;;4.07;1.98;;;17.20;85.00;;;;;;5027376;28;21048;-64
2021/05/20 12:02:19;;;;;;;4.78;2.83;;;17.20;87.90;;;;;;5050834;28;20044;-64
2021/05/20 12:04:48;;;;;;;3.88;2.10;;;17.20;84.90;;;;;;5042877;28;20053;-64
2021/05/20 12:07:24;;;;;;;3.22;2.50;;;17.20;82.30;;;;;;5027241;28;20067;-64
2021/05/20 12:09:54;;;;;;;5.47;2.50;;;17.30;83.60;;;;;;5043754;28;20119;-64
2021/05/20 12:12:23;;;;;;;4.15;2.10;;;17.30;86.00;;;;;;5009795;28;20048;-64
2021/05/20 12:14:53;;;;;;;3.90;2.13;;;17.30;82.60;;;;;;5007052;28;20140;-63
2021/05/20 12:17:26;;;;;;;2.80;1.80;;;17.30;82.80;;;;;;5042069;28;20136;-64
2021/05/20 12:19:55;;;;;;;3.08;1.70;;;17.30;84.20;;;;;;5027328;28;20045;-64
2021/05/20 12:22:22;;;;;;;2.33;1.70;;;17.20;80.20;;;;;;5026743;28;20049;-64
2021/05/20 12:24:52;;;;;;;3.28;2.20;;;17.10;82.00;;;;;;5043812;28;20047;-64
2021/05/20 12:27:25;;;;;;;3.00;1.95;;;17.10;84.50;;;;;;5025761;28;20087;-64
2021/05/20 12:29:57;;;;;;;1.92;0.43;;;17.00;82.70;;;;;;5025239;28;20081;-63
2021/05/20 12:32:42;;;;;;;2.83;0.68;;;16.80;81.20;;;;;;5051201;28;20048;-63
2021/05/20 12:35:24;;;;;;;1.85;0.50;;;16.60;83.90;;;;;;5042891;28;20566;-63
2021/05/20 12:38:05;;;;;;;1.30;0.40;;;16.30;86.90;;;;;;5025715;28;20048;-63
2021/05/20 12:40:36;;;;;;;1.88;0.50;;;16.00;90.10;;;;;;5025288;28;20041;-64
2021/05/20 12:43:32;;;;;;;3.13;0.60;;;15.70;92.60;;;;;;5024327;28;20048;-64
2021/05/20 12:46:05;;;;;;;3.50;1.60;;;15.60;92.80;;;;;;5034130;28;20045;-64
2021/05/20 12:48:33;;;;;;;3.28;1.20;;;15.30;94.30;;;;;;5045249;28;20060;-63
2021/05/20 12:51:06;;;;;;;4.25;0.93;;;15.10;96.80;;;;;;5044174;28;20053;-63
2021/05/20 12:53:36;;;;;;;2.08;1.20;;;14.90;99.50;;;;;;5022394;28;20080;-63
2021/05/20 12:56:26;;;;;;;1.88;0.70;;;14.80;99.20;;;;;;5027373;28;20057;-64
2021/05/20 12:59:02;;;;;;;3.83;0.90;;;14.60;99.90;;;;;;5012135;28;20131;-64
2021/05/20 13:01:49;;;;;;;4.10;0.77;;;14.50;99.90;;;;;;5047789;28;20087;-64
2021/05/20 13:04:24;;;;;;;1.70;1.00;;;14.40;99.90;;;;;;5024903;28;20056;-63